createdAt,value
2018-06-28T00:00:51.914Z,3.77
2018-06-28T00:03:19.185Z,2.20
2018-06-28T00:05:46.470Z,2.50
2018-06-28T00:08:13.765Z,2.63
2018-06-28T00:10:41.034Z,2.07
2018-06-28T00:13:08.322Z,3.20
2018-06-28T00:15:35.833Z,2.03
2018-06-28T00:18:03.128Z,5.53
2018-06-28T00:20:30.387Z,3.57
2018-06-28T00:22:57.680Z,3.60
2018-06-28T00:25:24.970Z,2.43
2018-06-28T00:27:52.245Z,3.47
2018-06-28T00:30:19.527Z,3.53
2018-06-28T00:32:46.774Z,2.37
2018-06-28T00:35:14.091Z,2.33
2018-06-28T00:37:41.348Z,2.30
2018-06-28T00:40:08.662Z,2.60
2018-06-28T00:42:35.948Z,2.33
2018-06-28T00:45:03.241Z,3.40
2018-06-28T00:47:30.522Z,3.87
2018-06-28T00:49:57.789Z,4.60
2018-06-28T00:52:25.076Z,2.30
2018-06-28T00:54:52.353Z,2.37
2018-06-28T00:57:19.667Z,3.73
2018-06-28T00:59:46.937Z,2.57
2018-06-28T01:02:14.205Z,2.53
2018-06-28T01:04:41.453Z,3.03
2018-06-28T01:07:08.729Z,2.30
2018-06-28T01:09:36.013Z,2.30
2018-06-28T01:12:03.321Z,2.93
2018-06-28T01:14:30.589Z,2.60
2018-06-28T01:16:58.013Z,3.83
2018-06-28T01:19:25.306Z,2.67
2018-06-28T01:21:52.601Z,2.90
2018-06-28T01:24:19.907Z,2.70
2018-06-28T01:26:47.225Z,4.10
2018-06-28T01:29:14.493Z,5.00
2018-06-28T01:31:41.765Z,2.63
2018-06-28T01:34:09.052Z,4.10
2018-06-28T01:36:36.336Z,2.90
2018-06-28T01:39:05.801Z,3.33
2018-06-28T01:41:38.837Z,8.13
2018-06-28T01:44:06.122Z,3.37
2018-06-28T01:46:33.391Z,3.57
2018-06-28T01:49:00.658Z,3.80
2018-06-28T01:51:27.950Z,3.93
2018-06-28T01:53:55.277Z,5.00
2018-06-28T01:56:22.561Z,4.27
2018-06-28T01:58:50.785Z,3.93
2018-06-28T02:01:18.078Z,4.17
2018-06-28T02:03:45.386Z,3.40
2018-06-28T02:06:12.685Z,3.13
2018-06-28T02:08:40.036Z,3.90
2018-06-28T02:11:07.309Z,4.53
2018-06-28T02:13:34.573Z,3.73
2018-06-28T02:16:01.863Z,3.33
2018-06-28T02:18:29.489Z,4.30
2018-06-28T02:20:56.777Z,5.30
2018-06-28T02:23:24.032Z,4.40
2018-06-28T02:25:51.337Z,4.70
2018-06-28T02:28:18.609Z,5.60
2018-06-28T02:30:45.920Z,6.03
2018-06-28T02:33:13.210Z,4.00
2018-06-28T02:35:40.476Z,4.30
2018-06-28T02:38:07.813Z,4.77
2018-06-28T02:40:35.112Z,4.33
2018-06-28T02:43:02.442Z,4.00
2018-06-28T02:45:29.730Z,6.33
2018-06-28T02:47:57.006Z,4.33
2018-06-28T02:50:24.272Z,4.20
2018-06-28T02:52:51.568Z,6.30
2018-06-28T02:55:18.862Z,4.17
2018-06-28T02:57:46.169Z,4.60
2018-06-28T03:00:13.483Z,5.70
2018-06-28T03:02:40.805Z,4.60
2018-06-28T03:05:08.110Z,4.77
2018-06-28T03:07:35.383Z,4.70
2018-06-28T03:10:02.681Z,3.83
2018-06-28T03:12:29.945Z,6.83
2018-06-28T03:14:57.229Z,5.30
2018-06-28T03:17:24.501Z,5.07
2018-06-28T03:19:51.945Z,5.37
2018-06-28T03:22:19.218Z,4.60
2018-06-28T03:24:46.499Z,4.83
2018-06-28T03:27:13.774Z,5.60
2018-06-28T03:29:41.077Z,4.77
2018-06-28T03:32:08.381Z,5.20
2018-06-28T03:34:35.645Z,5.00
2018-06-28T03:37:02.954Z,4.77
2018-06-28T03:39:30.241Z,6.20
2018-06-28T03:41:57.518Z,6.43
2018-06-28T03:44:24.873Z,6.03
2018-06-28T03:46:52.141Z,5.50
2018-06-28T03:49:19.405Z,5.90
2018-06-28T03:51:46.724Z,6.67
2018-06-28T03:54:14.071Z,6.93
2018-06-28T03:56:41.363Z,7.20
2018-06-28T03:59:08.673Z,8.67
2018-06-28T04:01:35.985Z,8.50
2018-06-28T04:04:03.264Z,9.83
2018-06-28T04:06:30.629Z,8.90
2018-06-28T04:08:57.861Z,14.27
2018-06-28T04:11:25.185Z,14.90
2018-06-28T04:13:52.468Z,8.97
2018-06-28T04:16:19.749Z,8.43
2018-06-28T04:18:47.029Z,5.30
2018-06-28T04:21:14.632Z,5.60
2018-06-28T04:23:41.902Z,6.07
2018-06-28T04:26:09.185Z,5.10
2018-06-28T04:28:36.458Z,8.77
2018-06-28T04:31:04.050Z,5.37
2018-06-28T04:33:31.686Z,8.87
2018-06-28T04:35:59.045Z,7.80
2018-06-28T04:38:26.313Z,5.73
2018-06-28T04:40:53.631Z,7.47
2018-06-28T04:43:20.947Z,6.20
2018-06-28T04:45:48.277Z,6.20
2018-06-28T04:48:15.581Z,5.40
2018-06-28T04:50:42.845Z,8.00
2018-06-28T04:53:10.125Z,5.10
2018-06-28T04:55:37.392Z,5.40
2018-06-28T04:58:04.709Z,5.03
2018-06-28T05:00:31.985Z,5.57
2018-06-28T05:02:59.250Z,6.60
2018-06-28T05:05:26.542Z,4.80
2018-06-28T05:07:53.846Z,5.17
2018-06-28T05:10:21.127Z,6.13
2018-06-28T05:12:48.405Z,5.27
2018-06-28T05:15:15.724Z,4.73
2018-06-28T05:17:42.990Z,6.77
2018-06-28T05:20:10.270Z,7.67
2018-06-28T05:22:37.933Z,5.67
2018-06-28T05:25:05.233Z,6.73
2018-06-28T05:27:32.505Z,5.90
2018-06-28T05:30:00.332Z,5.33
2018-06-28T05:32:27.610Z,7.00
2018-06-28T05:34:54.974Z,4.90
2018-06-28T05:37:22.165Z,5.80
2018-06-28T05:39:49.497Z,7.13
2018-06-28T05:42:16.793Z,5.70
2018-06-28T05:44:44.087Z,5.30
2018-06-28T05:47:11.536Z,7.40
2018-06-28T05:49:38.829Z,6.07
2018-06-28T05:52:06.150Z,5.20
2018-06-28T05:54:33.425Z,6.20
2018-06-28T05:57:00.942Z,5.83
2018-06-28T05:59:28.244Z,8.50
2018-06-28T06:01:55.630Z,9.77
2018-06-28T06:04:23.168Z,5.70
2018-06-28T06:06:50.474Z,4.87
2018-06-28T06:09:17.757Z,4.93
2018-06-28T06:11:45.038Z,5.43
2018-06-28T06:14:12.373Z,6.50
2018-06-28T06:16:39.693Z,6.70
2018-06-28T06:19:06.989Z,6.00
2018-06-28T06:21:34.425Z,6.60
2018-06-28T06:24:02.028Z,8.60
2018-06-28T06:26:29.329Z,5.27
2018-06-28T06:28:56.617Z,5.37
2018-06-28T06:31:23.934Z,4.53
2018-06-28T06:33:51.225Z,11.83
2018-06-28T06:36:18.592Z,4.90
2018-06-28T06:38:45.889Z,5.03
2018-06-28T06:41:13.443Z,5.53
2018-06-28T06:43:40.765Z,5.50
2018-06-28T06:46:08.126Z,4.63
2018-06-28T06:48:35.437Z,4.53
2018-06-28T06:51:02.717Z,4.90
2018-06-28T06:53:30.014Z,8.53
2018-06-28T06:55:57.290Z,6.93
2018-06-28T06:58:24.594Z,5.87
2018-06-28T07:00:51.951Z,5.90
2018-06-28T07:03:19.228Z,5.43
2018-06-28T07:05:46.542Z,5.27
2018-06-28T07:08:13.848Z,6.13
2018-06-28T07:10:41.137Z,4.70
2018-06-28T07:13:08.425Z,5.17
2018-06-28T07:15:35.721Z,7.80
2018-06-28T07:18:03.022Z,5.77
2018-06-28T07:20:30.328Z,5.97
2018-06-28T07:22:57.597Z,4.60
2018-06-28T07:25:25.193Z,4.60
2018-06-28T07:27:52.488Z,4.93
2018-06-28T07:30:19.801Z,6.60
2018-06-28T07:32:47.297Z,4.57
2018-06-28T07:35:14.572Z,4.80
2018-06-28T07:37:41.870Z,4.83
2018-06-28T07:40:09.167Z,4.73
2018-06-28T07:42:36.577Z,5.50
2018-06-28T07:45:03.747Z,5.03
2018-06-28T07:47:31.041Z,4.27
2018-06-28T07:49:58.331Z,4.10
2018-06-28T07:52:25.669Z,4.80
2018-06-28T07:54:52.978Z,5.80
2018-06-28T07:57:20.301Z,4.80
2018-06-28T07:59:47.650Z,4.70
2018-06-28T08:02:14.926Z,6.13
2018-06-28T08:04:42.217Z,6.43
2018-06-28T08:07:09.505Z,4.20
2018-06-28T08:09:36.775Z,6.00
2018-06-28T08:12:04.306Z,4.33
2018-06-28T08:14:31.615Z,4.50
2018-06-28T08:16:58.919Z,5.70
2018-06-28T08:19:26.201Z,3.77
2018-06-28T08:21:53.496Z,6.50
2018-06-28T08:24:20.785Z,3.70
2018-06-28T08:26:48.265Z,3.90
2018-06-28T08:29:15.517Z,4.93
2018-06-28T08:31:42.831Z,3.97
2018-06-28T08:34:10.108Z,6.20
2018-06-28T08:36:37.418Z,6.50
2018-06-28T08:39:05.893Z,5.60
2018-06-28T08:41:33.210Z,5.50
2018-06-28T08:44:00.512Z,4.57
2018-06-28T08:46:27.809Z,4.03
2018-06-28T08:48:55.120Z,2.53
2018-06-28T08:51:22.419Z,4.60
2018-06-28T08:53:49.745Z,2.97
2018-06-28T08:56:17.044Z,3.00
2018-06-28T08:58:44.377Z,3.33
2018-06-28T09:01:11.657Z,2.90
2018-06-28T09:03:38.941Z,3.77
2018-06-28T09:06:06.255Z,2.27
2018-06-28T09:08:33.538Z,2.70
2018-06-28T09:11:00.846Z,2.77
2018-06-28T09:13:28.149Z,5.77
2018-06-28T09:15:55.435Z,2.47
2018-06-28T09:18:22.761Z,2.03
2018-06-28T09:20:50.077Z,2.73
2018-06-28T09:23:17.372Z,7.50
2018-06-28T09:25:44.664Z,2.40
2018-06-28T09:28:12.533Z,2.50
2018-06-28T09:30:39.861Z,4.60
2018-06-28T09:33:07.136Z,2.03
2018-06-28T09:35:34.400Z,4.13
2018-06-28T09:38:01.757Z,2.20
2018-06-28T09:40:29.049Z,2.60
2018-06-28T09:42:56.394Z,3.07
2018-06-28T09:45:23.693Z,2.30
2018-06-28T09:47:51.057Z,2.10
2018-06-28T09:50:18.331Z,2.67
2018-06-28T09:52:45.636Z,2.07
2018-06-28T09:55:12.922Z,2.70
2018-06-28T09:57:40.234Z,2.53
2018-06-28T10:00:07.517Z,4.67
2018-06-28T10:02:35.296Z,2.20
2018-06-28T10:05:02.622Z,2.73
2018-06-28T10:07:29.899Z,2.30
2018-06-28T10:09:57.179Z,2.07
2018-06-28T10:12:24.465Z,3.87
2018-06-28T10:14:51.770Z,2.30
2018-06-28T10:17:19.041Z,2.07
2018-06-28T10:19:46.452Z,3.80
2018-06-28T10:22:13.713Z,2.00
2018-06-28T10:24:41.022Z,2.03
2018-06-28T10:27:08.321Z,2.87
2018-06-28T10:29:35.828Z,3.37
2018-06-28T10:32:03.154Z,1.80
2018-06-28T10:34:30.448Z,1.80
2018-06-28T10:36:57.721Z,2.50
2018-06-28T10:39:25.228Z,2.57
2018-06-28T10:41:52.513Z,2.10
2018-06-28T10:44:19.786Z,3.50
2018-06-28T10:46:47.058Z,2.57
2018-06-28T10:49:14.333Z,1.80
2018-06-28T10:51:41.780Z,2.57
2018-06-28T10:54:09.090Z,2.30
2018-06-28T10:56:36.349Z,2.03
2018-06-28T10:59:03.642Z,2.30
2018-06-28T11:01:30.945Z,2.30
2018-06-28T11:03:58.233Z,1.80
2018-06-28T11:06:25.533Z,2.30
2018-06-28T11:08:52.956Z,2.33
2018-06-28T11:11:20.213Z,2.07
2018-06-28T11:13:47.499Z,2.20
2018-06-28T11:16:14.765Z,7.03
2018-06-28T11:18:42.113Z,2.33
2018-06-28T11:21:09.313Z,4.00
2018-06-28T11:23:36.598Z,3.67
2018-06-28T11:26:03.878Z,2.07
2018-06-28T11:28:31.165Z,2.97
2018-06-28T11:30:58.721Z,2.77
2018-06-28T11:33:25.964Z,6.73
2018-06-28T11:35:53.246Z,1.67
2018-06-28T11:38:20.558Z,1.80
2018-06-28T11:40:47.850Z,1.60
2018-06-28T11:43:15.141Z,1.70
2018-06-28T11:45:42.437Z,1.90
2018-06-28T11:48:09.697Z,1.60
2018-06-28T11:50:36.992Z,1.37
2018-06-28T11:53:04.264Z,1.60
2018-06-28T11:55:31.573Z,1.87
2018-06-28T11:57:58.841Z,1.77
2018-06-28T12:00:26.151Z,1.50
2018-06-28T12:02:53.390Z,1.70
2018-06-28T12:05:20.669Z,2.10
2018-06-28T12:07:47.927Z,2.07
2018-06-28T12:10:15.197Z,1.60
2018-06-28T12:12:42.493Z,1.40
2018-06-28T12:15:09.777Z,3.07
2018-06-28T12:17:37.078Z,1.70
2018-06-28T12:20:04.385Z,1.50
2018-06-28T12:22:31.673Z,1.80
2018-06-28T12:24:58.960Z,1.60
2018-06-28T12:27:26.250Z,1.77
2018-06-28T12:29:53.524Z,1.50
2018-06-28T12:32:20.964Z,2.30
2018-06-28T12:34:48.217Z,2.43
2018-06-28T12:37:15.518Z,1.60
2018-06-28T12:39:42.805Z,1.50
2018-06-28T12:42:10.077Z,2.47
2018-06-28T12:44:37.381Z,3.43
2018-06-28T12:47:41.588Z,1.67
2018-06-28T12:50:08.885Z,1.93
2018-06-28T12:52:39.892Z,2.70
2018-06-28T12:55:07.469Z,5.10
2018-06-28T12:57:34.752Z,2.37
2018-06-28T13:00:02.348Z,1.90
2018-06-28T13:02:29.569Z,2.17
2018-06-28T13:04:56.840Z,1.70
2018-06-28T13:07:24.105Z,1.77
2018-06-28T13:09:51.381Z,1.90
2018-06-28T13:12:18.688Z,2.20
2018-06-28T13:14:46.030Z,1.77
2018-06-28T13:17:13.333Z,1.90
2018-06-28T13:19:40.612Z,2.20
2018-06-28T13:22:07.909Z,1.87
2018-06-28T13:24:35.179Z,2.63
2018-06-28T13:27:02.469Z,3.90
2018-06-28T13:29:29.837Z,10.47
2018-06-28T13:31:57.109Z,3.13
2018-06-28T13:34:24.575Z,2.23
2018-06-28T13:36:51.850Z,1.90
2018-06-28T13:39:19.179Z,4.23
2018-06-28T13:41:46.785Z,1.60
2018-06-28T13:44:13.803Z,5.73
2018-06-28T13:46:41.065Z,2.00
2018-06-28T13:49:08.559Z,2.00
2018-06-28T13:51:35.821Z,2.73
2018-06-28T13:54:03.098Z,3.37
2018-06-28T13:56:30.380Z,2.40
2018-06-28T13:58:57.677Z,2.70
2018-06-28T14:01:24.939Z,1.73
2018-06-28T14:03:52.213Z,2.13
2018-06-28T14:06:19.465Z,2.23
2018-06-28T14:08:46.761Z,4.30
2018-06-28T14:11:14.065Z,2.70
2018-06-28T14:13:41.401Z,5.50
2018-06-28T14:16:08.683Z,8.30
2018-06-28T14:18:36.010Z,3.13
2018-06-28T14:21:03.269Z,3.73
2018-06-28T14:23:30.541Z,2.17
2018-06-28T14:25:57.918Z,1.80
2018-06-28T14:28:25.157Z,1.50
2018-06-28T14:30:52.443Z,1.93
2018-06-28T14:33:19.969Z,2.03
2018-06-28T14:35:47.432Z,2.60
2018-06-28T14:38:14.693Z,3.50
2018-06-28T14:40:41.969Z,2.93
2018-06-28T14:43:09.257Z,1.80
2018-06-28T14:45:36.517Z,2.10
2018-06-28T14:48:03.794Z,2.10
2018-06-28T14:50:31.109Z,2.40
2018-06-28T14:52:58.373Z,1.53
2018-06-28T14:55:25.645Z,1.90
2018-06-28T14:57:52.954Z,3.47
2018-06-28T15:00:20.232Z,3.00
2018-06-28T15:02:47.507Z,2.97
2018-06-28T15:05:14.797Z,2.50
2018-06-28T15:07:42.078Z,7.30
2018-06-28T15:10:09.368Z,3.77
2018-06-28T15:12:36.675Z,2.20
2018-06-28T15:15:04.411Z,2.13
2018-06-28T15:17:31.678Z,1.80
2018-06-28T15:19:59.005Z,3.10
2018-06-28T15:22:26.277Z,2.60
2018-06-28T15:24:53.586Z,1.90
2018-06-28T15:27:20.861Z,1.90
2018-06-28T15:29:48.128Z,1.73
2018-06-28T15:32:15.423Z,2.17
2018-06-28T15:34:42.701Z,5.23
2018-06-28T15:37:10.249Z,4.00
2018-06-28T15:39:37.561Z,2.97
2018-06-28T15:42:04.849Z,7.87
2018-06-28T15:44:32.137Z,1.50
2018-06-28T15:46:59.452Z,1.80
2018-06-28T15:49:26.756Z,1.23
2018-06-28T15:51:54.021Z,1.43
2018-06-28T15:54:21.290Z,1.33
2018-06-28T15:56:48.553Z,1.97
2018-06-28T15:59:15.860Z,1.53
2018-06-28T16:01:43.144Z,2.63
2018-06-28T16:04:10.425Z,1.63
2018-06-28T16:06:37.712Z,3.37
2018-06-28T16:09:06.341Z,3.67
2018-06-28T16:11:33.606Z,1.70
2018-06-28T16:14:00.873Z,1.33
2018-06-28T16:16:28.137Z,2.43
2018-06-28T16:18:55.421Z,2.70
2018-06-28T16:21:22.684Z,1.70
2018-06-28T16:23:49.965Z,1.70
2018-06-28T16:26:17.229Z,5.40
2018-06-28T16:28:44.517Z,4.27
2018-06-28T16:31:11.789Z,2.40
2018-06-28T16:33:39.060Z,4.20
2018-06-28T16:36:06.341Z,6.77
2018-06-28T16:38:33.802Z,18.63
2018-06-28T16:41:01.105Z,13.77
2018-06-28T16:43:28.422Z,16.50
2018-06-28T16:45:55.694Z,8.77
2018-06-28T16:48:22.968Z,9.40
2018-06-28T16:50:50.285Z,11.63
2018-06-28T16:53:17.581Z,14.93
2018-06-28T16:55:44.859Z,10.73
2018-06-28T16:58:12.151Z,7.93
2018-06-28T17:00:40.221Z,10.20
2018-06-28T17:03:10.004Z,27.27
2018-06-28T17:05:37.265Z,9.63
2018-06-28T17:08:04.631Z,34.70
2018-06-28T17:10:31.856Z,95.43
2018-06-28T17:12:59.404Z,75.50
2018-06-28T17:15:26.685Z,101.10
2018-06-28T17:17:53.966Z,7.63
2018-06-28T17:20:21.310Z,3.10
2018-06-28T17:22:48.509Z,1.50
2018-06-28T17:25:15.920Z,1.50
2018-06-28T17:27:43.097Z,1.67
2018-06-28T17:30:10.393Z,1.43
2018-06-28T17:32:37.668Z,1.33
2018-06-28T17:35:05.057Z,1.70
2018-06-28T17:37:32.379Z,2.10
2018-06-28T17:39:59.760Z,1.70
2018-06-28T17:42:27.054Z,2.00
2018-06-28T17:44:54.360Z,1.60
2018-06-28T17:47:21.677Z,52.23
2018-06-28T17:49:48.950Z,30.77
2018-06-28T17:52:16.339Z,17.80
2018-06-28T17:54:43.630Z,7.67
2018-06-28T17:57:11.025Z,15.47
2018-06-28T17:59:38.334Z,12.97
2018-06-28T18:02:05.609Z,8.53
2018-06-28T18:04:32.928Z,2.60
2018-06-28T18:07:01.072Z,7.93
2018-06-28T18:09:28.357Z,6.37
2018-06-28T18:11:55.676Z,5.90
2018-06-28T18:14:22.974Z,7.47
2018-06-28T18:16:50.309Z,5.90
2018-06-28T18:19:17.633Z,5.23
2018-06-28T18:21:44.963Z,4.07
2018-06-28T18:24:12.247Z,4.10
2018-06-28T18:26:39.557Z,3.30
2018-06-28T18:29:06.871Z,4.27
2018-06-28T18:31:34.297Z,4.10
2018-06-28T18:34:01.608Z,6.03
2018-06-28T18:36:29.113Z,7.70
2018-06-28T18:38:56.404Z,5.43
2018-06-28T18:41:23.744Z,5.53
2018-06-28T18:43:51.029Z,1.77
2018-06-28T18:46:18.317Z,1.83
2018-06-28T18:48:45.609Z,5.13
2018-06-28T18:51:12.881Z,1.37
2018-06-28T18:53:40.148Z,1.53
2018-06-28T18:56:07.421Z,2.00
2018-06-28T18:58:34.722Z,4.10
2018-06-28T19:01:02.009Z,2.60
2018-06-28T19:03:29.288Z,1.50
2018-06-28T19:05:56.606Z,1.40
2018-06-28T19:08:23.925Z,1.10
2018-06-28T19:10:51.464Z,1.90
2018-06-28T19:13:18.752Z,2.20
2018-06-28T19:15:51.696Z,1.33
2018-06-28T19:18:18.972Z,1.33
2018-06-28T19:20:51.984Z,1.43
2018-06-28T19:23:25.097Z,1.90
2018-06-28T19:25:52.365Z,3.60
2018-06-28T19:28:19.633Z,3.30
2018-06-28T19:30:52.829Z,3.53
2018-06-28T19:33:20.129Z,2.87
2018-06-28T19:35:47.502Z,2.10
2018-06-28T19:38:14.697Z,4.57
2018-06-28T19:40:47.792Z,2.80
2018-06-28T19:43:15.216Z,2.30
2018-06-28T19:45:42.497Z,2.43
2018-06-28T19:48:09.773Z,2.87
2018-06-28T19:50:42.777Z,2.40
2018-06-28T19:53:14.227Z,4.80
2018-06-28T19:55:41.517Z,2.70
2018-06-28T19:58:08.790Z,3.13
2018-06-28T20:00:41.765Z,2.53
2018-06-28T20:03:14.857Z,3.77
2018-06-28T20:05:42.162Z,2.70
2018-06-28T20:08:09.458Z,5.53
2018-06-28T20:10:36.871Z,4.90
2018-06-28T20:13:10.230Z,3.70
2018-06-28T20:15:49.057Z,4.60
2018-06-28T20:18:22.192Z,2.90
2018-06-28T20:20:49.505Z,3.90
2018-06-28T20:23:16.777Z,2.47
2018-06-28T20:25:44.081Z,2.93
2018-06-28T20:28:17.008Z,4.80
2018-06-28T20:30:50.116Z,3.40
2018-06-28T20:33:23.209Z,2.87
2018-06-28T20:35:50.569Z,6.53
2018-06-28T20:38:17.853Z,3.07
2018-06-28T20:40:45.153Z,3.13
2018-06-28T20:43:12.469Z,3.53
2018-06-28T20:45:40.140Z,2.63
2018-06-28T20:48:07.918Z,2.40
2018-06-28T20:50:35.254Z,2.87
2018-06-28T20:53:02.540Z,5.23
2018-06-28T20:55:29.848Z,5.17
2018-06-28T20:57:57.133Z,4.13
2018-06-28T21:00:24.409Z,5.70
2018-06-28T21:02:51.688Z,3.80
2018-06-28T21:05:18.968Z,9.17
2018-06-28T21:07:46.249Z,3.07
2018-06-28T21:10:13.524Z,4.40
2018-06-28T21:12:40.809Z,2.97
2018-06-28T21:15:08.099Z,2.73
2018-06-28T21:17:35.403Z,3.33
2018-06-28T21:20:02.702Z,2.00
2018-06-28T21:22:29.989Z,2.30
2018-06-28T21:24:57.280Z,2.03
2018-06-28T21:27:24.556Z,2.13
2018-06-28T21:29:51.852Z,2.50
2018-06-28T21:32:19.125Z,5.13
2018-06-28T21:34:46.457Z,2.70
2018-06-28T21:37:13.738Z,3.83
2018-06-28T21:39:40.988Z,3.30
2018-06-28T21:42:08.254Z,2.70
2018-06-28T21:44:35.548Z,4.50
2018-06-28T21:47:03.445Z,7.60
2018-06-28T21:49:30.761Z,2.90
2018-06-28T21:51:58.049Z,4.10
2018-06-28T21:54:25.341Z,2.73
2018-06-28T21:56:52.633Z,2.97
2018-06-28T21:59:19.918Z,3.07
2018-06-28T22:01:51.077Z,2.30
2018-06-28T22:04:18.379Z,6.40
2018-06-28T22:06:46.045Z,2.90
2018-06-28T22:09:13.573Z,4.97
2018-06-28T22:11:40.858Z,3.90
2018-06-28T22:14:08.143Z,4.60
2018-06-28T22:16:35.422Z,7.43
2018-06-28T22:19:02.705Z,2.87
2018-06-28T22:21:30.007Z,2.60
2018-06-28T22:23:57.277Z,3.27
2018-06-28T22:26:24.573Z,4.70
2018-06-28T22:28:52.865Z,2.60
2018-06-28T22:31:20.176Z,2.00
2018-06-28T22:33:47.452Z,3.37
2018-06-28T22:36:14.752Z,2.53
2018-06-28T22:38:42.053Z,2.50
2018-06-28T22:41:09.333Z,2.67
2018-06-28T22:43:36.616Z,2.67
2018-06-28T22:46:03.965Z,3.37
2018-06-28T22:48:31.507Z,2.83
2018-06-28T22:50:58.812Z,4.00
2018-06-28T22:53:26.118Z,3.53
2018-06-28T22:55:53.433Z,5.23
2018-06-28T22:58:20.728Z,2.80
2018-06-28T23:00:48.094Z,3.73
2018-06-28T23:03:15.380Z,4.40
2018-06-28T23:05:42.654Z,4.93
2018-06-28T23:08:09.949Z,2.50
2018-06-28T23:10:37.208Z,3.30
2018-06-28T23:13:04.601Z,3.43
2018-06-28T23:15:31.893Z,2.90
2018-06-28T23:17:59.150Z,2.50
2018-06-28T23:20:26.444Z,9.43
2018-06-28T23:22:53.733Z,3.80
2018-06-28T23:25:21.228Z,4.40
2018-06-28T23:27:49.099Z,2.53
2018-06-28T23:30:16.679Z,3.00
2018-06-28T23:32:43.969Z,2.77
2018-06-28T23:35:11.244Z,3.93
2018-06-28T23:37:38.593Z,2.63
2018-06-28T23:40:05.889Z,8.30
2018-06-28T23:42:33.661Z,2.77
2018-06-28T23:45:00.958Z,3.70
2018-06-28T23:47:28.389Z,2.33
2018-06-28T23:49:55.685Z,3.80
2018-06-28T23:52:22.964Z,3.67
2018-06-28T23:54:50.231Z,1.80
2018-06-28T23:57:17.928Z,2.30
2018-06-28T23:59:45.217Z,2.30
